Time;durP1;ratioP1;P1;durP2;ratioP2;P2;SDS_P1;SDS_P2;PMS_P1;PMS_P2;Temp;Humidity;BMP_temperature;BMP_pressure;BME280_temperature;BME280_humidity;BME280_pressure;Samples;Min_cycle;Max_cycle;Signal;HPM_P1;HPM_P2
2022/12/14 00:00:25;;;;;;;41.63;19.00;;;;;;;-9.63;100.00;97645.41;4219282;28;20028;-74
2022/12/14 00:02:25;;;;;;;45.97;18.75;;;;;;;-9.61;100.00;97637.91;4219563;28;20129;-74
2022/12/14 00:04:25;;;;;;;36.10;18.30;;;;;;;-9.59;100.00;97634.97;4219866;28;20570;-74
2022/12/14 00:06:28;;;;;;;35.45;17.33;;;;;;;-9.59;100.00;97640.34;4220973;27;20032;-74
2022/12/14 00:08:29;;;;;;;41.20;18.23;;;;;;;-9.60;100.00;97631.47;4220570;27;20040;-74
2022/12/14 00:10:31;;;;;;;37.03;17.80;;;;;;;-9.54;100.00;97634.97;4222232;28;20433;-74
2022/12/14 00:12:31;;;;;;;41.55;19.52;;;;;;;-9.54;100.00;97630.41;4220058;27;20115;-74
2022/12/14 00:14:31;;;;;;;34.95;17.58;;;;;;;-9.53;100.00;97625.84;4221564;27;20085;-74
2022/12/14 00:16:33;;;;;;;43.83;17.85;;;;;;;-9.52;100.00;97627.44;4222093;28;20063;-74
2022/12/14 00:18:34;;;;;;;42.60;18.58;;;;;;;-9.51;100.00;97624.53;4221759;27;20067;-74
2022/12/14 00:20:34;;;;;;;38.03;16.80;;;;;;;-9.51;100.00;97634.44;4219681;28;20047;-74
2022/12/14 00:22:34;;;;;;;38.25;16.92;;;;;;;-9.54;100.00;97634.97;4219969;27;20534;-74
2022/12/14 00:24:35;;;;;;;47.05;20.25;;;;;;;-9.53;100.00;97640.03;4221206;27;20122;-74
2022/12/14 00:26:35;;;;;;;39.00;18.33;;;;;;;-9.55;100.00;97630.69;4221024;27;20135;-74
2022/12/14 00:28:36;;;;;;;31.40;17.05;;;;;;;-9.52;100.00;97638.16;4219298;28;20139;-74
2022/12/14 00:30:36;;;;;;;37.05;17.63;;;;;;;-9.60;100.00;97626.09;4221664;27;20302;-74
2022/12/14 00:32:37;;;;;;;34.58;17.65;;;;;;;-9.68;100.00;97626.66;4220124;27;20122;-74
2022/12/14 00:34:37;;;;;;;35.00;16.77;;;;;;;-9.69;100.00;97625.84;4207565;28;20119;-74
2022/12/14 00:36:37;;;;;;;34.75;17.42;;;;;;;-9.65;100.00;97616.22;4220156;27;20434;-74
2022/12/14 00:38:39;;;;;;;34.42;17.08;;;;;;;-9.62;100.00;97610.31;4221373;28;20055;-74
2022/12/14 00:40:40;;;;;;;35.70;16.70;;;;;;;-9.55;100.00;97606.56;4220137;27;20056;-74
2022/12/14 00:42:40;;;;;;;33.47;17.20;;;;;;;-9.51;100.00;97615.69;4221370;27;20342;-74
2022/12/14 00:44:40;;;;;;;35.95;16.25;;;;;;;-9.50;100.00;97606.59;4213279;27;20525;-74
2022/12/14 00:46:41;;;;;;;37.10;17.77;;;;;;;-9.56;100.00;97610.31;4221304;27;20568;-74
2022/12/14 00:48:41;;;;;;;38.45;17.83;;;;;;;-9.54;100.00;97600.94;4220823;27;20043;-74
2022/12/14 00:50:46;;;;;;;38.88;17.33;;;;;;;-9.55;100.00;97596.66;4220965;27;20052;-74
2022/12/14 00:52:46;;;;;;;36.33;17.45;;;;;;;-9.49;100.00;97584.88;4222163;27;20492;-74
2022/12/14 00:54:47;;;;;;;40.92;18.73;;;;;;;-9.42;100.00;97589.97;4220822;27;20039;-74
2022/12/14 00:56:47;;;;;;;37.85;18.15;;;;;;;-9.42;100.00;97598.81;4220299;27;20036;-74
2022/12/14 00:58:51;;;;;;;36.05;17.35;;;;;;;-9.41;100.00;97603.09;4222839;27;20044;-74
2022/12/14 01:01:05;;;;;;;42.38;19.52;;;;;;;-9.41;100.00;97600.41;4221080;28;20483;-74
2022/12/14 01:03:06;;;;;;;35.05;18.20;;;;;;;-9.44;100.00;97592.09;4219303;28;20046;-74
2022/12/14 01:05:06;;;;;;;42.80;17.25;;;;;;;-9.51;100.00;97604.97;4220697;28;20070;-74
2022/12/14 01:07:07;;;;;;;40.75;17.48;;;;;;;-9.60;100.00;97604.69;4220322;28;20047;-74
2022/12/14 01:09:07;;;;;;;37.03;17.63;;;;;;;-9.67;100.00;97604.19;4220576;27;20032;-74
2022/12/14 01:11:08;;;;;;;33.17;15.38;;;;;;;-9.76;100.00;97597.75;4221146;27;20060;-74
2022/12/14 01:13:10;;;;;;;31.80;15.60;;;;;;;-9.80;100.00;97607.38;4218677;27;20040;-74
2022/12/14 01:15:11;;;;;;;31.70;15.13;;;;;;;-9.84;100.00;97599.09;4220481;27;20468;-74
2022/12/14 01:17:11;;;;;;;36.97;16.75;;;;;;;-9.86;100.00;97601.22;4219496;27;20032;-74
2022/12/14 01:19:13;;;;;;;33.08;15.85;;;;;;;-9.90;100.00;97608.19;4220118;28;20055;-74
2022/12/14 01:21:20;;;;;;;30.70;16.80;;;;;;;-9.96;100.00;97595.88;4220162;28;20039;-74
2022/12/14 01:23:20;;;;;;;39.53;17.95;;;;;;;-9.95;100.00;97598.28;4218041;28;20483;-74
2022/12/14 01:25:21;;;;;;;34.28;16.48;;;;;;;-9.92;100.00;97600.44;4220682;27;20042;-74
2022/12/14 01:27:21;;;;;;;39.42;17.80;;;;;;;-9.85;100.00;97599.34;4220419;27;20212;-74
2022/12/14 01:29:23;;;;;;;37.05;16.17;;;;;;;-9.85;100.00;97602.81;4221312;27;20078;-74
2022/12/14 01:31:27;;;;;;;35.53;17.55;;;;;;;-9.89;100.00;97598.28;4220629;28;20462;-74
2022/12/14 01:33:28;;;;;;;36.10;16.45;;;;;;;-9.93;100.00;97590.81;4218342;28;20473;-74
2022/12/14 01:35:28;;;;;;;34.05;17.13;;;;;;;-9.92;100.00;97596.97;4218526;27;20086;-74
2022/12/14 01:37:28;;;;;;;39.67;17.83;;;;;;;-9.97;100.00;97591.59;4219159;27;20043;-74
2022/12/14 01:39:29;;;;;;;39.63;15.73;;;;;;;-9.95;100.00;97597.47;4219604;28;20047;-74
2022/12/14 01:41:36;;;;;;;41.15;17.92;;;;;;;-9.93;100.00;97590.81;4218571;28;20043;-74
2022/12/14 01:43:55;;;;;;;32.33;15.85;;;;;;;-9.95;100.00;97595.59;4219351;27;20467;-74
2022/12/14 01:45:55;;;;;;;40.92;18.45;;;;;;;-9.96;100.00;97593.19;4219213;27;20389;-74
2022/12/14 01:48:01;;;;;;;42.35;18.63;;;;;;;-9.99;100.00;97586.53;4218859;27;20238;-74
2022/12/14 01:50:09;;;;;;;38.20;17.70;;;;;;;-9.99;100.00;97588.41;4218452;28;20310;-74
2022/12/14 01:52:20;;;;;;;38.35;16.92;;;;;;;-10.01;100.00;97587.84;4219178;28;20089;-74
2022/12/14 01:54:21;;;;;;;39.13;16.77;;;;;;;-10.03;100.00;97584.63;4218830;28;20038;-74
2022/12/14 01:56:21;;;;;;;36.95;17.52;;;;;;;-9.98;100.00;97577.41;4219528;28;20081;-74
2022/12/14 01:58:24;;;;;;;37.35;17.92;;;;;;;-9.99;100.00;97567.78;4219901;28;20741;-74
2022/12/14 02:00:24;;;;;;;33.00;17.40;;;;;;;-9.90;100.00;97565.38;4218211;28;20074;-74
2022/12/14 02:02:27;;;;;;;36.80;17.23;;;;;;;-9.83;100.00;97575.81;4218883;28;20048;-74
2022/12/14 02:04:28;;;;;;;39.83;18.35;;;;;;;-9.79;100.00;97558.94;4219141;28;20544;-74
2022/12/14 02:06:34;;;;;;;35.00;16.35;;;;;;;-9.71;100.00;97560.28;4219917;28;20031;-74
2022/12/14 02:08:35;;;;;;;26.88;15.45;;;;;;;-9.66;100.00;97560.28;4218584;27;20506;-74
2022/12/14 02:10:36;;;;;;;32.92;16.92;;;;;;;-9.68;100.00;97549.84;4216945;28;20221;-74
2022/12/14 02:12:48;;;;;;;35.70;16.27;;;;;;;-9.59;100.00;97558.13;4218265;27;20080;-74
2022/12/14 02:14:51;;;;;;;37.63;16.65;;;;;;;-9.62;100.00;97551.41;4219407;28;20506;-74
2022/12/14 02:16:53;;;;;;;47.25;18.25;;;;;;;-9.57;100.00;97557.84;4218738;27;20039;-74
2022/12/14 02:18:54;;;;;;;33.00;16.88;;;;;;;-9.54;100.00;97559.97;4219414;28;20563;-74
2022/12/14 02:21:15;;;;;;;37.75;18.05;;;;;;;-9.58;100.00;97545.53;4218636;28;20455;-74
2022/12/14 02:23:55;;;;;;;35.72;17.60;;;;;;;-9.60;100.00;97548.47;4217744;28;20039;-74
2022/12/14 02:26:01;;;;;;;33.30;17.42;;;;;;;-9.64;100.00;97547.41;4216024;28;20511;-74
2022/12/14 02:28:06;;;;;;;33.22;15.40;;;;;;;-9.65;100.00;97535.91;4217097;27;20051;-74
2022/12/14 02:30:11;;;;;;;34.42;16.85;;;;;;;-9.60;100.00;97543.09;4218604;28;20034;-74
2022/12/14 02:32:45;;;;;;;37.55;16.30;;;;;;;-9.55;100.00;97528.91;4218604;27;20281;-74
2022/12/14 02:35:02;;;;;;;33.05;14.95;;;;;;;-9.56;100.00;97533.47;4218821;28;20079;-74
2022/12/14 02:37:12;;;;;;;27.08;14.55;;;;;;;-9.56;100.00;97528.13;4219181;28;20042;-74
2022/12/14 02:39:22;;;;;;;38.20;15.13;;;;;;;-9.51;100.00;97522.75;4218918;27;20486;-74
2022/12/14 02:41:44;;;;;;;28.48;14.80;;;;;;;-9.50;100.00;97519.00;4218548;28;20051;-74
2022/12/14 02:43:48;;;;;;;28.42;15.07;;;;;;;-9.42;100.00;97518.44;4217374;27;20047;-74
2022/12/14 02:46:10;;;;;;;32.08;16.45;;;;;;;-9.37;100.00;97517.59;4218231;28;20051;-74
2022/12/14 02:48:22;;;;;;;33.00;15.10;;;;;;;-9.32;100.00;97506.09;4216707;27;20039;-74
2022/12/14 02:50:41;;;;;;;34.40;16.40;;;;;;;-9.32;100.00;97506.09;4219105;28;20270;-74
2022/12/14 02:53:06;;;;;;;33.85;14.68;;;;;;;-9.29;100.00;97497.50;4218969;27;20040;-74
2022/12/14 02:55:27;;;;;;;31.75;16.42;;;;;;;-9.27;100.00;97489.97;4217892;27;20310;-74
2022/12/14 02:57:35;;;;;;;32.75;16.05;;;;;;;-9.29;100.00;97489.47;4219471;27;20070;-74
2022/12/14 02:59:36;;;;;;;32.22;15.82;;;;;;;-9.33;100.00;97480.38;4218506;28;20074;-74
2022/12/14 03:01:38;;;;;;;31.92;15.23;;;;;;;-9.37;100.00;97474.75;4217742;28;20035;-74
2022/12/14 03:03:39;;;;;;;;;;;;;;;-9.39;100.00;97479.59;4218627;28;20132;-74
2022/12/14 03:05:39;;;;;;;25.48;13.38;;;;;;;-9.42;100.00;97474.78;4218241;28;19911;-74
2022/12/14 03:07:48;;;;;;;34.17;15.73;;;;;;;-9.50;100.00;97476.16;4218707;27;20122;-74
2022/12/14 03:09:48;;;;;;;31.25;14.70;;;;;;;-9.58;100.00;97476.72;4218891;27;20105;-74
2022/12/14 03:11:57;;;;;;;34.78;15.48;;;;;;;-9.66;100.00;97461.22;4218444;27;20048;-74
2022/12/14 03:14:05;;;;;;;33.53;15.65;;;;;;;-9.71;100.00;97467.38;4218030;28;20058;-74
2022/12/14 03:16:14;;;;;;;32.30;15.25;;;;;;;-9.75;100.00;97468.19;4217428;28;20051;-74
2022/12/14 03:18:18;;;;;;;30.40;15.65;;;;;;;-9.80;100.00;97452.94;4217647;27;20463;-74
2022/12/14 03:20:22;;;;;;;31.58;16.90;;;;;;;-9.82;100.00;97460.44;4219247;28;20153;-74
2022/12/14 03:22:32;;;;;;;36.75;16.75;;;;;;;-9.75;100.00;97458.28;4217421;27;20082;-74
2022/12/14 03:24:41;;;;;;;32.47;15.50;;;;;;;-9.74;100.00;97467.13;4219083;28;20364;-74
2022/12/14 03:26:48;;;;;;;36.58;15.90;;;;;;;-9.77;100.00;97459.63;4218715;28;20069;-74
2022/12/14 03:28:53;;;;;;;37.88;17.73;;;;;;;-9.82;100.00;97460.44;4219672;27;20261;-74
2022/12/14 03:31:00;;;;;;;48.65;19.25;;;;;;;-9.86;100.00;97454.03;4217893;27;20082;-74
2022/12/14 03:33:06;;;;;;;40.78;18.38;;;;;;;-9.86;100.00;97464.72;4216046;27;20352;-74
2022/12/14 03:35:14;;;;;;;36.33;18.38;;;;;;;-9.88;100.00;97456.16;4218303;27;20036;-74
2022/12/14 03:37:20;;;;;;;34.47;18.10;;;;;;;-9.93;100.00;97443.63;4219250;28;20048;-74
2022/12/14 03:39:26;;;;;;;34.95;17.48;;;;;;;-9.94;100.00;97442.00;4222089;28;20031;-74
2022/12/14 03:41:47;;;;;;;36.60;17.50;;;;;;;-9.86;100.00;97447.88;4220708;28;20044;-74
2022/12/14 03:43:58;;;;;;;35.40;15.40;;;;;;;-9.87;100.00;97440.91;4220570;27;20051;-74
2022/12/14 03:46:24;;;;;;;32.45;15.75;;;;;;;-9.89;100.00;97429.69;4221489;28;20039;-74
2022/12/14 03:48:53;;;;;;;31.95;14.95;;;;;;;-9.82;100.00;97431.00;4219500;27;20540;-74
2022/12/14 03:51:18;;;;;;;29.30;14.50;;;;;;;-9.84;100.00;97435.84;4221720;27;20122;-74
2022/12/14 03:53:40;;;;;;;29.00;15.27;;;;;;;-9.89;100.00;97443.06;4205598;27;20058;-74
2022/12/14 03:56:01;;;;;;;36.05;15.50;;;;;;;-9.88;100.00;97428.59;4208843;27;20044;-74
2022/12/14 03:58:29;;;;;;;34.55;14.50;;;;;;;-9.84;100.00;97425.13;4218705;27;20095;-74
2022/12/14 04:00:36;;;;;;;36.05;14.50;;;;;;;-9.79;100.00;97422.41;4220390;27;20068;-74
2022/12/14 04:02:49;;;;;;;37.33;16.00;;;;;;;-9.76;100.00;97407.69;4220758;27;20040;-74
2022/12/14 04:04:54;;;;;;;28.00;14.88;;;;;;;-9.69;100.00;97410.88;4222315;27;20044;-74
2022/12/14 04:07:16;;;;;;;31.02;14.77;;;;;;;-9.71;100.00;97413.81;4221971;28;20095;-74
2022/12/14 04:10:01;;;;;;;28.70;13.15;;;;;;;-9.78;100.00;97417.88;4221085;27;20036;-74
2022/12/14 04:19:30;;;;;;;30.50;14.45;;;;;;;-9.89;100.00;97402.91;4221436;28;20743;-74
2022/12/14 04:21:33;;;;;;;30.75;14.85;;;;;;;-9.81;100.00;97402.38;4220608;28;20051;-74
2022/12/14 04:26:03;;;;;;;28.48;14.15;;;;;;;-9.69;100.00;97394.81;4220826;28;20088;-74
2022/12/14 04:29:55;;;;;;;32.35;15.05;;;;;;;-9.70;100.00;97395.88;4219001;27;20040;-74
2022/12/14 04:30:38;;;;;;;37.03;15.00;;;;;;;-9.73;100.00;97397.25;4219393;27;20039;-74
2022/12/14 04:35:37;;;;;;;37.65;16.17;;;;;;;-9.91;100.00;97387.16;4217389;28;20063;-74
2022/12/14 04:37:41;;;;;;;35.88;16.45;;;;;;;-9.85;100.00;97393.25;4220016;27;20036;-74
2022/12/14 04:39:59;;;;;;;31.25;14.38;;;;;;;-9.86;100.00;97386.31;4220438;28;20048;-74
2022/12/14 04:42:04;;;;;;;27.23;13.68;;;;;;;-9.90;100.00;97378.03;4221035;28;20050;-74
2022/12/14 04:44:14;;;;;;;29.60;13.00;;;;;;;-9.94;100.00;97377.75;4217846;27;20066;-74
2022/12/14 04:46:19;;;;;;;31.42;14.15;;;;;;;-9.92;100.00;97374.84;4220010;27;20521;-74
2022/12/14 04:48:41;;;;;;;29.23;13.98;;;;;;;-9.95;100.00;97372.69;4219957;27;20098;-74
2022/12/14 04:50:46;;;;;;;32.78;14.75;;;;;;;-10.03;100.00;97381.28;4220763;27;20462;-74
2022/12/14 04:52:53;;;;;;;35.10;15.10;;;;;;;-9.98;100.00;97373.25;4220023;28;20047;-74
2022/12/14 04:55:05;;;;;;;30.08;14.70;;;;;;;-10.00;100.00;97367.38;4219034;27;20044;-74
2022/12/14 04:57:22;;;;;;;29.23;13.43;;;;;;;-10.00;100.00;97375.41;4219864;28;20035;-74
2022/12/14 04:59:23;;;;;;;32.53;14.32;;;;;;;-10.02;100.00;97378.31;4219357;28;20048;-74
2022/12/14 05:01:49;;;;;;;36.10;15.57;;;;;;;-10.01;100.00;97369.25;4220749;28;20314;-74
2022/12/14 05:04:07;;;;;;;34.05;16.25;;;;;;;-10.05;100.00;97368.19;4219539;27;20274;-74
2022/12/14 05:06:20;;;;;;;28.83;13.55;;;;;;;-10.04;100.00;97372.44;4219631;27;20050;-74
2022/12/14 05:08:40;;;;;;;27.73;12.93;;;;;;;-10.01;100.00;97376.44;4216681;28;20785;-74
2022/12/14 05:11:10;;;;;;;31.48;13.32;;;;;;;-9.97;100.00;97380.19;4219521;27;20054;-74
2022/12/14 05:13:20;;;;;;;25.38;12.88;;;;;;;-9.92;100.00;97372.16;4216339;28;20108;-74
2022/12/14 05:15:25;;;;;;;28.05;13.68;;;;;;;-9.81;100.00;97363.00;4216527;27;20510;-74
2022/12/14 05:17:26;;;;;;;28.27;13.82;;;;;;;-9.80;100.00;97359.25;4217442;28;20154;-74
2022/12/14 05:19:26;;;;;;;34.40;16.83;;;;;;;-9.80;100.00;97358.47;4217208;27;20066;-74
2022/12/14 05:21:46;;;;;;;29.98;15.02;;;;;;;-9.84;100.00;97358.22;4219694;27;20293;-74
2022/12/14 05:23:46;;;;;;;30.38;13.82;;;;;;;-9.89;100.00;97346.72;4217016;28;20115;-74
2022/12/14 05:25:47;;;;;;;29.15;15.63;;;;;;;-9.88;100.00;97348.31;4217649;28;20031;-74
2022/12/14 05:27:47;;;;;;;33.58;14.45;;;;;;;-9.92;100.00;97348.09;4215213;28;20036;-74
2022/12/14 05:29:47;;;;;;;38.30;16.58;;;;;;;-9.94;100.00;97359.03;4216612;28;20067;-74
2022/12/14 05:31:49;;;;;;;34.05;15.57;;;;;;;-9.97;100.00;97361.47;4218632;28;20118;-74
2022/12/14 05:33:49;;;;;;;32.30;15.18;;;;;;;-10.02;100.00;97372.16;4215738;27;20085;-74
2022/12/14 05:35:49;;;;;;;29.13;13.95;;;;;;;-10.04;100.00;97367.09;4217436;28;20421;-74
2022/12/14 05:37:49;;;;;;;32.28;15.77;;;;;;;-10.06;100.00;97360.44;4216657;28;20365;-74
2022/12/14 05:39:50;;;;;;;34.70;14.40;;;;;;;-10.02;100.00;97356.13;4215610;28;20554;-74
2022/12/14 05:41:52;;;;;;;27.48;12.38;;;;;;;-10.03;100.00;97366.03;4216991;27;20510;-74
2022/12/14 05:43:52;;;;;;;29.48;13.45;;;;;;;-10.04;100.00;97360.94;4214426;27;20039;-74
2022/12/14 05:46:00;;;;;;;30.08;13.48;;;;;;;-10.05;100.00;97356.69;4216721;27;20702;-74
2022/12/14 05:48:00;;;;;;;28.58;13.57;;;;;;;-10.04;100.00;97351.03;4217111;28;20499;-74
2022/12/14 05:50:01;;;;;;;29.20;13.25;;;;;;;-10.05;100.00;97336.06;4215658;27;20067;-74
2022/12/14 05:52:01;;;;;;;29.42;13.93;;;;;;;-10.06;100.00;97329.13;4217010;27;20545;-74
2022/12/14 05:54:02;;;;;;;38.22;15.60;;;;;;;-10.01;100.00;97336.31;4214654;28;20484;-74
2022/12/14 05:56:04;;;;;;;24.58;14.43;;;;;;;-10.02;100.00;97324.00;4162931;27;20061;-74
2022/12/14 05:58:05;;;;;;;30.80;14.95;;;;;;;-9.99;100.00;97321.59;4216973;27;20054;-74
2022/12/14 06:00:05;;;;;;;35.17;13.25;;;;;;;-10.00;100.00;97321.88;4218062;27;20024;-74
2022/12/14 06:02:06;;;;;;;34.47;14.13;;;;;;;-10.01;100.00;97312.22;4216134;27;20599;-74
2022/12/14 06:04:06;;;;;;;32.15;15.07;;;;;;;-9.99;100.00;97313.56;4214475;28;20039;-74
2022/12/14 06:06:09;;;;;;;34.88;16.23;;;;;;;-9.98;100.00;97317.06;4218885;27;20359;-74
2022/12/14 06:08:10;;;;;;;31.65;15.35;;;;;;;-9.98;100.00;97312.50;4217207;28;20503;-74
2022/12/14 06:10:10;;;;;;;34.10;15.48;;;;;;;-9.97;100.00;97307.94;4214619;28;20026;-74
2022/12/14 06:12:11;;;;;;;31.83;13.85;;;;;;;-9.88;100.00;97308.97;4216901;27;20096;-74
2022/12/14 06:14:12;;;;;;;30.83;15.32;;;;;;;-9.91;100.00;97306.84;4214065;28;20131;-74
2022/12/14 06:16:22;;;;;;;28.83;13.23;;;;;;;-9.87;100.00;97310.56;4216525;28;20481;-74
2022/12/14 06:18:23;;;;;;;36.78;15.30;;;;;;;-9.86;100.00;97308.69;4215531;27;20775;-74
2022/12/14 06:20:23;;;;;;;34.67;14.82;;;;;;;-9.83;100.00;97308.97;4219160;28;20046;-74
2022/12/14 06:22:23;;;;;;;37.08;15.88;;;;;;;-9.81;100.00;97303.31;4215707;28;20650;-74
2022/12/14 06:24:24;;;;;;;30.10;13.55;;;;;;;-9.78;100.00;97300.09;4214593;27;20043;-74
2022/12/14 06:26:25;;;;;;;24.63;14.02;;;;;;;-9.77;100.00;97310.50;4218692;28;20051;-74
2022/12/14 06:28:26;;;;;;;29.50;14.82;;;;;;;-9.75;100.00;97296.88;4219166;27;20044;-74
2022/12/14 06:30:27;;;;;;;38.65;15.27;;;;;;;-9.75;100.00;97300.34;4219541;27;20098;-74
2022/12/14 06:32:27;;;;;;;29.77;14.00;;;;;;;-9.71;100.00;97293.34;4215932;27;20048;-74
2022/12/14 06:34:27;;;;;;;27.33;13.48;;;;;;;-9.71;100.00;97296.03;4213387;27;20363;-74
2022/12/14 06:36:31;;;;;;;29.23;13.48;;;;;;;-9.70;100.00;97297.63;4210867;27;20484;-74
2022/12/14 06:38:34;;;;;;;27.35;13.80;;;;;;;-9.69;100.00;97295.75;4215852;27;20444;-74
2022/12/14 06:40:34;;;;;;;;;;;;;;;-9.69;100.00;97293.88;4213772;27;20070;-74
2022/12/14 06:42:34;;;;;;;33.50;14.07;;;;;;;-9.70;100.00;97297.63;4217163;28;20072;-74
2022/12/14 06:44:34;;;;;;;28.20;13.40;;;;;;;-9.69;100.00;97299.22;4217354;27;20071;-74
2022/12/14 06:46:36;;;;;;;28.95;13.73;;;;;;;-9.68;100.00;97295.50;4216395;27;20128;-74
2022/12/14 06:48:36;;;;;;;28.98;13.93;;;;;;;-9.68;100.00;97295.50;4220243;27;20401;-74
2022/12/14 06:50:37;;;;;;;28.98;13.27;;;;;;;-9.69;100.00;97293.88;4216930;28;20070;-74
2022/12/14 06:52:38;;;;;;;32.63;14.25;;;;;;;-9.68;100.00;97287.47;4217826;28;20379;-74
2022/12/14 06:54:38;;;;;;;35.28;15.63;;;;;;;-9.58;100.00;97283.94;4217012;28;20517;-74
2022/12/14 06:56:39;;;;;;;38.78;16.13;;;;;;;-9.54;100.00;97273.44;4218414;27;20090;-74
2022/12/14 06:58:40;;;;;;;37.75;15.70;;;;;;;-9.51;100.00;97281.75;4219050;28;20281;-74
2022/12/14 07:00:41;;;;;;;34.28;15.60;;;;;;;-9.50;100.00;97277.19;4217453;28;20110;-74
2022/12/14 07:02:41;;;;;;;33.35;15.02;;;;;;;-9.47;100.00;97276.63;4219146;27;20071;-74
2022/12/14 07:04:41;;;;;;;29.48;15.40;;;;;;;-9.50;100.00;97272.63;4218740;28;20120;-74
2022/12/14 07:06:42;;;;;;;35.17;15.13;;;;;;;-9.43;100.00;97261.59;4219209;28;20114;-74
2022/12/14 07:08:43;;;;;;;28.55;15.15;;;;;;;-9.43;100.00;97259.72;4217136;28;20087;-74
2022/12/14 07:10:43;;;;;;;34.40;15.32;;;;;;;-9.43;100.00;97256.22;4219123;27;20079;-74
2022/12/14 07:12:43;;;;;;;31.40;14.23;;;;;;;-9.46;100.00;97260.28;4210842;28;20043;-74
2022/12/14 07:14:43;;;;;;;25.85;13.40;;;;;;;-9.45;100.00;97261.06;4220221;27;20046;-74
2022/12/14 07:16:44;;;;;;;39.00;16.38;;;;;;;-9.45;100.00;97261.88;4224225;27;20073;-74
2022/12/14 07:18:44;;;;;;;33.53;16.10;;;;;;;-9.46;100.00;97260.28;4213560;27;20040;-74
2022/12/14 07:20:57;;;;;;;33.92;17.05;;;;;;;-9.44;100.00;97262.66;4222192;27;20031;-74
2022/12/14 07:22:58;;;;;;;35.72;15.82;;;;;;;-9.43;100.00;97250.88;4221509;27;20040;-74
2022/12/14 07:24:58;;;;;;;33.63;16.48;;;;;;;-9.41;100.00;97251.41;4221327;27;20036;-74
2022/12/14 07:26:59;;;;;;;36.65;16.77;;;;;;;-9.42;100.00;97253.28;4221817;27;20036;-74
2022/12/14 07:28:59;;;;;;;35.90;16.05;;;;;;;-9.41;100.00;97246.84;4221442;28;20439;-74
2022/12/14 07:31:00;;;;;;;35.58;15.73;;;;;;;-9.39;100.00;97244.69;4220269;27;20437;-74
2022/12/14 07:33:00;;;;;;;33.15;15.02;;;;;;;-9.38;100.00;97240.13;4221646;27;20076;-74
2022/12/14 07:35:01;;;;;;;33.88;16.20;;;;;;;-9.32;100.00;97249.72;4221361;28;20039;-74
2022/12/14 07:37:01;;;;;;;28.52;14.05;;;;;;;-9.32;100.00;97239.00;4222640;27;20329;-74
2022/12/14 07:39:01;;;;;;;28.17;14.23;;;;;;;-9.29;100.00;97230.41;4220002;27;20135;-74
2022/12/14 07:41:07;;;;;;;30.80;14.48;;;;;;;-9.27;100.00;97238.16;4220790;28;20484;-74
2022/12/14 07:43:07;;;;;;;37.75;16.40;;;;;;;-9.26;100.00;97226.41;4220977;28;20036;-74
2022/12/14 07:45:08;;;;;;;29.02;14.38;;;;;;;-9.23;100.00;97239.22;4221863;28;20043;-74
2022/12/14 07:47:08;;;;;;;32.42;14.95;;;;;;;-9.23;100.00;97231.97;4221855;27;20035;-74
2022/12/14 07:49:09;;;;;;;28.13;13.57;;;;;;;-9.22;100.00;97230.91;4222123;27;20488;-74
2022/12/14 07:51:12;;;;;;;26.75;13.40;;;;;;;-9.21;100.00;97226.34;4217230;28;20577;-74
2022/12/14 07:53:12;;;;;;;31.33;14.98;;;;;;;-9.16;100.00;97215.59;4219848;28;20032;-74
2022/12/14 07:55:12;;;;;;;27.70;13.10;;;;;;;-9.14;100.00;97218.78;4220895;27;20172;-74
2022/12/14 07:57:13;;;;;;;34.35;14.30;;;;;;;-9.14;100.00;97219.56;4222101;27;20053;-74
2022/12/14 07:59:16;;;;;;;27.60;13.95;;;;;;;-9.10;100.00;97209.06;4220866;27;20035;-74
2022/12/14 08:01:19;;;;;;;27.50;14.90;;;;;;;-9.08;100.00;97202.38;4221041;27;20039;-74
2022/12/14 08:03:20;;;;;;;33.63;16.27;;;;;;;-9.04;100.00;97205.28;4220678;28;20047;-74
2022/12/14 08:05:20;;;;;;;31.42;13.90;;;;;;;-9.04;100.00;97194.56;4210556;28;20050;-74
2022/12/14 08:07:20;;;;;;;32.53;15.23;;;;;;;-9.03;100.00;97190.78;4219452;28;20047;-74
2022/12/14 08:09:21;;;;;;;27.75;14.13;;;;;;;-8.98;100.00;97196.09;4221071;28;20440;-74
2022/12/14 08:11:22;;;;;;;31.88;14.75;;;;;;;-8.99;100.00;97189.16;4221392;28;20040;-74
2022/12/14 08:13:22;;;;;;;35.45;15.77;;;;;;;-8.97;100.00;97183.50;4220541;27;20043;-74
2022/12/14 08:15:22;;;;;;;32.30;14.63;;;;;;;-8.97;100.00;97192.34;4217930;27;20481;-74
2022/12/14 08:17:23;;;;;;;31.98;14.65;;;;;;;-8.96;100.00;97185.91;4222139;27;20071;-74
2022/12/14 08:19:23;;;;;;;41.40;17.02;;;;;;;-8.92;100.00;97194.19;4221425;27;20053;-74
2022/12/14 08:21:24;;;;;;;36.53;17.95;;;;;;;-8.86;100.00;97204.56;4220065;27;20032;-74
2022/12/14 08:23:25;;;;;;;40.50;17.95;;;;;;;-8.81;100.00;97196.47;4220352;27;20181;-74
2022/12/14 08:25:25;;;;;;;39.40;17.60;;;;;;;-8.82;100.00;97188.72;4221137;28;20071;-74
2022/12/14 08:27:25;;;;;;;40.40;17.65;;;;;;;-8.81;100.00;97183.06;4219130;27;20048;-74
2022/12/14 08:29:26;;;;;;;44.80;18.70;;;;;;;-8.81;100.00;97185.75;4221024;28;20043;-74
2022/12/14 08:31:27;;;;;;;37.15;15.93;;;;;;;-8.79;100.00;97185.44;4221782;27;20358;-74
2022/12/14 08:33:27;;;;;;;42.65;19.35;;;;;;;-8.78;100.00;97181.69;4219662;27;20500;-74
2022/12/14 08:35:27;;;;;;;47.08;17.60;;;;;;;-8.79;100.00;97172.84;4220242;28;20036;-74
2022/12/14 08:37:28;;;;;;;35.60;20.30;;;;;;;-8.78;100.00;97176.31;4220327;27;20452;-74
2022/12/14 08:39:28;;;;;;;38.10;19.42;;;;;;;-8.70;100.00;97183.75;4220984;27;20050;-74
2022/12/14 08:41:29;;;;;;;37.83;18.10;;;;;;;-8.69;100.00;97185.34;4219454;27;20540;-74
2022/12/14 08:43:29;;;;;;;36.10;19.33;;;;;;;-8.70;100.00;97172.22;4219907;27;20059;-74
2022/12/14 08:45:30;;;;;;;36.47;17.98;;;;;;;-8.67;100.00;97177.03;4220710;27;20043;-74
2022/12/14 08:47:30;;;;;;;33.95;18.52;;;;;;;-8.65;100.00;97175.66;4219630;27;20275;-74
2022/12/14 08:49:30;;;;;;;36.10;16.90;;;;;;;-8.64;100.00;97169.19;4218990;28;20154;-74
2022/12/14 08:51:31;;;;;;;36.13;16.50;;;;;;;-8.58;100.00;97175.31;4220160;28;20138;-74
2022/12/14 08:53:32;;;;;;;36.40;17.05;;;;;;;-8.58;100.00;97175.31;4219957;28;20047;-74
2022/12/14 08:55:32;;;;;;;33.92;15.65;;;;;;;-8.55;100.00;97172.03;4219794;28;20390;-74
2022/12/14 08:57:33;;;;;;;34.28;17.02;;;;;;;-8.59;100.00;97177.19;4219020;27;20341;-74
2022/12/14 08:59:33;;;;;;;35.70;17.58;;;;;;;-8.56;100.00;97178.50;4220750;28;20046;-74
2022/12/14 09:01:33;;;;;;;35.47;17.20;;;;;;;-8.55;100.00;97172.03;4220060;27;20858;-74
2022/12/14 09:03:34;;;;;;;38.60;16.75;;;;;;;-8.53;100.00;97170.66;4219801;28;20320;-74
2022/12/14 09:05:34;;;;;;;32.90;16.88;;;;;;;-8.46;100.00;97167.63;4220255;27;20490;-74
2022/12/14 09:07:34;;;;;;;39.50;18.30;;;;;;;-8.43;100.00;97164.41;4220304;27;20416;-74
2022/12/14 09:09:36;;;;;;;37.55;18.98;;;;;;;-8.37;100.00;97168.59;4219057;28;20291;-74
2022/12/14 09:11:36;;;;;;;41.30;18.33;;;;;;;-8.31;100.00;97177.34;4220170;27;20440;-74
2022/12/14 09:13:36;;;;;;;41.70;18.95;;;;;;;-8.30;100.00;97174.38;4219632;28;20318;-74
2022/12/14 09:15:37;;;;;;;37.80;17.77;;;;;;;-8.22;100.00;97179.09;4220127;28;20044;-74
2022/12/14 09:17:37;;;;;;;38.55;16.83;;;;;;;-8.21;100.00;97180.69;4220141;27;20631;-74
2022/12/14 09:19:37;;;;;;;45.90;19.65;;;;;;;-8.18;100.00;97182.03;4219779;28;20043;-74
2022/12/14 09:21:38;;;;;;;36.70;17.85;;;;;;;-8.10;100.00;97184.06;4220026;27;20052;-74
2022/12/14 09:23:39;;;;;;;37.13;19.55;;;;;;;-8.07;100.00;97186.16;4218281;28;20314;-74
2022/12/14 09:25:40;;;;;;;36.33;17.63;;;;;;;-8.03;100.00;97184.47;4218850;28;20150;-74
2022/12/14 09:27:40;;;;;;;37.83;18.52;;;;;;;-7.97;100.00;97187.91;4219818;27;20079;-74
2022/12/14 09:29:40;;;;;;;36.35;19.05;;;;;;;-7.93;100.00;97189.72;4219987;28;20071;-74
2022/12/14 09:31:41;;;;;;;39.08;17.60;;;;;;;-7.94;100.00;97195.41;4219885;27;20123;-74
2022/12/14 09:33:41;;;;;;;42.72;17.77;;;;;;;-7.85;100.00;97195.53;4217954;28;20064;-74
2022/12/14 09:35:42;;;;;;;46.75;20.58;;;;;;;-7.82;100.00;97187.69;4218614;27;20527;-74
2022/12/14 09:37:42;;;;;;;38.10;19.45;;;;;;;-7.80;100.00;97188.19;4220908;27;20382;-74